Archival Weather

Chicago O'Hare International

Chicago, Illinois (KORD)

Report from: Thursday, March 21, 2024 12:51 AM CDT
Current time: Tuesday, May 21, 2024 12:02 PM CDT

Current weather – Weather history – Daily summaries
Weather forecast

Temperature-1.7°C (28.9°F)
Dew point-8.3°C (17.1°F)
Winds Calm
Visibility10 mi. (16.1 km)
Clouds Scattered clouds 11,000 ft. (3,353 m)
Altimeter30.22 in.Hg (1023 mB)
Relative humidity61 %
Density altitude-2,357 ft. (-718 m)
Sea-level pressure102.4 kPa (1024 mB, 30.24 in.Hg)
Max temp last 6 hours1.1°C (34.0°F)
Min temp last 6 hours-1.7°C (28.9°F)
Max temp last 24 hours6.7°C (44.1°F)
Min temp last 24 hours-1.7°C (28.9°F)
Remarks System requires maintenance
Automated weather observing station with precipitation discriminator
Pressure rising more quickly
Flight conditions Visual Meteorological Conditions
Raw dataKORD 210551Z 00000KT 10SM SCT110 M02/M08 A3022 RMK AO2 SLP239 T10171083 10011 21017 400671017 53013 $
An error has occurred. This application may no longer respond until reloaded. Reload 🗙